createdAt,value
2022-08-31T00:00:32.016Z,95.80
2022-08-31T00:03:19.802Z,95.70
2022-08-31T00:05:48.806Z,95.70
2022-08-31T00:08:18.211Z,95.60
2022-08-31T00:10:46.649Z,95.40
2022-08-31T00:13:15.140Z,95.30
2022-08-31T00:15:42.760Z,95.20
2022-08-31T00:18:10.019Z,95.20
2022-08-31T00:20:37.081Z,95.10
2022-08-31T00:23:08.807Z,94.90
2022-08-31T00:25:39.953Z,94.80
2022-08-31T00:28:08.500Z,94.80
2022-08-31T00:30:36.078Z,94.70
2022-08-31T00:33:05.822Z,94.50
2022-08-31T00:35:36.263Z,94.40
2022-08-31T00:38:04.746Z,94.30
2022-08-31T00:40:32.529Z,94.20
2022-08-31T00:43:02.465Z,94.10
2022-08-31T00:45:31.883Z,94.10
2022-08-31T00:47:58.712Z,94.00
2022-08-31T00:50:28.513Z,94.00
2022-08-31T00:53:02.588Z,94.00
2022-08-31T00:55:35.333Z,94.00
2022-08-31T00:58:06.452Z,94.00
2022-08-31T01:00:34.403Z,93.90
2022-08-31T01:03:02.872Z,93.90
2022-08-31T01:05:30.969Z,93.90
2022-08-31T01:08:02.028Z,93.90
2022-08-31T01:10:38.441Z,93.80
2022-08-31T01:13:06.824Z,93.80
2022-08-31T01:15:36.482Z,93.90
2022-08-31T01:18:07.065Z,93.80
2022-08-31T01:21:02.138Z,93.80
2022-08-31T01:23:38.700Z,93.80
2022-08-31T01:26:08.065Z,93.80
2022-08-31T01:28:37.324Z,93.80
2022-08-31T01:31:14.627Z,93.80
2022-08-31T01:33:43.953Z,93.80
2022-08-31T01:36:15.816Z,93.70
2022-08-31T01:38:43.938Z,93.70
2022-08-31T01:41:13.992Z,93.70
2022-08-31T01:43:43.774Z,93.70
2022-08-31T01:46:13.242Z,93.60
2022-08-31T01:48:43.130Z,93.60
2022-08-31T01:51:12.576Z,93.70
2022-08-31T01:53:40.409Z,93.70
2022-08-31T01:56:23.672Z,93.60
2022-08-31T01:58:53.737Z,93.60
2022-08-31T02:01:33.877Z,93.60
2022-08-31T02:04:03.927Z,93.60
2022-08-31T02:06:31.650Z,93.70
2022-08-31T02:08:59.114Z,93.60
2022-08-31T02:11:26.050Z,93.70
2022-08-31T02:13:54.044Z,93.60
2022-08-31T02:16:20.888Z,93.60
2022-08-31T02:18:49.953Z,93.60
2022-08-31T02:21:19.105Z,93.70
2022-08-31T02:23:45.917Z,93.60
2022-08-31T02:26:15.126Z,93.60
2022-08-31T02:28:41.970Z,93.70
2022-08-31T02:31:10.996Z,93.70
2022-08-31T02:33:40.717Z,93.70
2022-08-31T02:36:08.108Z,93.70
2022-08-31T02:38:40.847Z,93.80
2022-08-31T02:41:09.134Z,93.80
2022-08-31T02:43:38.180Z,93.90
2022-08-31T02:46:05.955Z,93.90
2022-08-31T02:48:32.779Z,93.90
2022-08-31T02:51:05.746Z,93.90
2022-08-31T02:53:32.624Z,93.90
2022-08-31T02:55:59.825Z,93.90
2022-08-31T02:58:26.877Z,93.90
2022-08-31T03:00:54.514Z,93.90
2022-08-31T03:03:21.977Z,93.90
2022-08-31T03:05:49.621Z,94.00
2022-08-31T03:08:19.164Z,94.00
2022-08-31T03:10:46.964Z,94.00
2022-08-31T03:13:13.781Z,94.10
2022-08-31T03:15:46.285Z,94.00
2022-08-31T03:18:13.218Z,94.10
2022-08-31T03:20:39.971Z,94.10
2022-08-31T03:23:07.121Z,94.10
2022-08-31T03:25:35.464Z,94.10
2022-08-31T03:28:04.927Z,94.00
2022-08-31T03:30:32.020Z,94.10
2022-08-31T03:33:12.219Z,94.10
2022-08-31T03:35:44.873Z,94.10
2022-08-31T03:38:12.985Z,94.10
2022-08-31T03:40:44.192Z,94.10
2022-08-31T03:43:12.017Z,94.10
2022-08-31T03:45:42.703Z,94.10
2022-08-31T03:48:12.743Z,94.20
2022-08-31T03:50:40.907Z,94.20
2022-08-31T03:53:11.561Z,94.20
2022-08-31T03:55:41.173Z,94.20
2022-08-31T03:58:08.499Z,94.20
2022-08-31T04:00:36.544Z,94.30
2022-08-31T04:03:03.607Z,94.20
2022-08-31T04:05:35.463Z,94.20
2022-08-31T04:08:04.754Z,94.20
2022-08-31T04:10:33.995Z,94.20
2022-08-31T04:13:00.764Z,94.20
2022-08-31T04:15:27.612Z,94.20
2022-08-31T04:17:58.752Z,94.20
2022-08-31T04:20:29.624Z,94.20
2022-08-31T04:22:57.099Z,94.20
2022-08-31T04:25:23.937Z,94.10
2022-08-31T04:27:55.162Z,94.10
2022-08-31T04:30:27.448Z,94.10
2022-08-31T04:32:57.062Z,94.10
2022-08-31T04:35:24.076Z,94.10
2022-08-31T04:37:54.206Z,94.10
2022-08-31T04:40:25.490Z,94.00
2022-08-31T04:42:55.191Z,93.90
2022-08-31T04:45:22.029Z,93.90
2022-08-31T04:47:49.228Z,93.90
2022-08-31T04:50:16.654Z,93.90
2022-08-31T04:52:45.159Z,93.90
2022-08-31T04:55:30.568Z,93.80
2022-08-31T04:57:59.747Z,93.70
2022-08-31T05:00:27.730Z,93.70
2022-08-31T05:02:56.756Z,93.60
2022-08-31T05:05:23.610Z,93.60
2022-08-31T05:07:52.564Z,93.80
2022-08-31T05:10:21.634Z,93.40
2022-08-31T05:12:52.071Z,93.20
2022-08-31T05:15:19.012Z,93.00
2022-08-31T05:17:48.443Z,92.90
2022-08-31T05:20:15.311Z,92.70
2022-08-31T05:22:42.088Z,92.60
2022-08-31T05:25:09.408Z,92.60
2022-08-31T05:27:36.431Z,92.40
2022-08-31T05:30:04.317Z,92.20
2022-08-31T05:32:34.127Z,92.00
2022-08-31T05:35:04.807Z,91.60
2022-08-31T05:37:33.703Z,91.40
2022-08-31T05:40:00.574Z,91.30
2022-08-31T05:42:27.378Z,91.10
2022-08-31T05:44:56.393Z,91.00
2022-08-31T05:47:25.316Z,90.80
2022-08-31T05:49:54.610Z,90.70
2022-08-31T05:52:24.763Z,90.70
2022-08-31T05:54:52.123Z,90.70
2022-08-31T05:57:20.649Z,90.80
2022-08-31T05:59:51.393Z,90.80
2022-08-31T06:02:18.353Z,90.90
2022-08-31T06:04:45.239Z,91.00
2022-08-31T06:07:12.084Z,91.10
2022-08-31T06:09:41.826Z,91.10
2022-08-31T06:12:11.411Z,91.10
2022-08-31T06:14:45.149Z,91.10
2022-08-31T06:17:17.394Z,91.10
2022-08-31T06:19:47.325Z,91.10
2022-08-31T06:22:14.087Z,91.10
2022-08-31T06:24:43.201Z,91.00
2022-08-31T06:27:10.245Z,90.90
2022-08-31T06:29:37.219Z,90.90
2022-08-31T06:32:10.222Z,90.90
2022-08-31T06:34:38.318Z,91.00
2022-08-31T06:37:05.463Z,91.00
2022-08-31T06:39:32.888Z,90.90
2022-08-31T06:42:03.211Z,90.80
2022-08-31T06:44:30.432Z,90.80
2022-08-31T06:46:57.613Z,90.80
2022-08-31T06:49:24.604Z,90.80
2022-08-31T06:51:53.776Z,90.70
2022-08-31T06:54:29.351Z,90.60
2022-08-31T06:56:58.653Z,90.60
2022-08-31T06:59:29.190Z,90.50
2022-08-31T07:01:58.175Z,90.50
2022-08-31T07:04:26.303Z,90.50
2022-08-31T07:06:55.363Z,90.50
2022-08-31T07:09:25.064Z,90.40
2022-08-31T07:11:52.686Z,90.30
2022-08-31T07:14:23.019Z,90.30
2022-08-31T07:16:51.320Z,90.40
2022-08-31T07:19:21.985Z,90.30
2022-08-31T07:21:55.511Z,90.20
2022-08-31T07:24:27.868Z,90.20
2022-08-31T07:26:58.164Z,90.10
2022-08-31T07:29:30.374Z,90.00
2022-08-31T07:32:00.475Z,89.20
2022-08-31T07:34:30.663Z,89.00
2022-08-31T07:37:18.114Z,88.80
2022-08-31T07:40:07.952Z,88.30
2022-08-31T07:42:43.206Z,87.80
2022-08-31T07:45:23.156Z,86.90
2022-08-31T07:47:55.022Z,86.80
2022-08-31T07:50:22.741Z,86.20
2022-08-31T07:52:54.071Z,85.70
2022-08-31T07:55:26.259Z,85.30
2022-08-31T07:57:56.870Z,85.40
2022-08-31T08:00:29.479Z,85.50
2022-08-31T08:02:57.204Z,85.20
2022-08-31T08:05:29.284Z,85.00
2022-08-31T08:08:07.530Z,85.10
2022-08-31T08:10:42.718Z,83.80
2022-08-31T08:13:12.504Z,83.40
2022-08-31T08:15:40.449Z,82.80
2022-08-31T08:18:08.118Z,81.70
2022-08-31T08:20:38.384Z,81.40
2022-08-31T08:23:14.665Z,81.00
2022-08-31T08:25:46.073Z,80.30
2022-08-31T08:31:05.705Z,79.70
2022-08-31T08:33:34.890Z,79.70
2022-08-31T08:36:07.890Z,79.60
2022-08-31T08:38:38.903Z,79.00
2022-08-31T08:41:12.021Z,78.90
2022-08-31T08:43:43.918Z,79.40
2022-08-31T08:46:33.470Z,79.30
2022-08-31T08:49:10.727Z,78.90
2022-08-31T08:51:39.125Z,78.40
2022-08-31T08:54:40.026Z,78.00
2022-08-31T08:57:16.445Z,78.70
2022-08-31T08:59:47.891Z,78.20
2022-08-31T09:02:17.814Z,77.20
2022-08-31T09:04:54.110Z,77.40
2022-08-31T09:07:44.444Z,77.20
2022-08-31T09:10:17.091Z,77.20
2022-08-31T09:12:58.140Z,78.00
2022-08-31T09:16:04.554Z,78.00
2022-08-31T09:18:44.840Z,78.20
2022-08-31T09:21:25.563Z,78.30
2022-08-31T09:24:02.117Z,77.90
2022-08-31T09:26:35.600Z,77.70
2022-08-31T09:29:03.872Z,77.30
2022-08-31T09:31:42.352Z,76.80
2022-08-31T09:34:32.927Z,76.60
2022-08-31T09:37:15.017Z,76.00
2022-08-31T09:39:47.610Z,76.10
2022-08-31T09:42:34.080Z,76.10
2022-08-31T09:45:11.659Z,76.00
2022-08-31T09:47:48.032Z,75.80
2022-08-31T09:50:35.034Z,75.50
2022-08-31T09:53:45.852Z,75.30
2022-08-31T09:56:20.586Z,75.40
2022-08-31T09:59:02.726Z,76.00
2022-08-31T10:01:35.132Z,77.00
2022-08-31T10:04:16.071Z,75.80
2022-08-31T10:07:06.946Z,75.10
2022-08-31T10:09:47.053Z,74.20
2022-08-31T10:12:34.669Z,74.00
2022-08-31T10:15:16.616Z,73.10
2022-08-31T10:17:51.382Z,73.90
2022-08-31T10:20:24.438Z,74.00
2022-08-31T10:23:20.783Z,74.00
2022-08-31T10:25:57.507Z,73.90
2022-08-31T10:28:32.133Z,72.70
2022-08-31T10:31:02.834Z,71.90
2022-08-31T10:34:00.856Z,70.90
2022-08-31T10:36:36.826Z,71.80
2022-08-31T10:39:07.922Z,71.80
2022-08-31T10:41:41.056Z,71.00
2022-08-31T10:44:26.363Z,71.00
2022-08-31T10:46:58.241Z,70.40
2022-08-31T10:49:26.390Z,71.00
2022-08-31T10:52:03.235Z,70.80
2022-08-31T10:55:06.976Z,70.40
2022-08-31T10:57:51.187Z,70.60
2022-08-31T11:00:41.941Z,69.40
2022-08-31T11:03:42.192Z,69.80
2022-08-31T11:06:47.062Z,70.90
2022-08-31T11:09:23.526Z,70.10
2022-08-31T11:11:58.265Z,69.90
2022-08-31T11:15:00.815Z,69.50
2022-08-31T11:17:32.201Z,69.60
2022-08-31T11:20:14.201Z,69.50
2022-08-31T11:23:13.376Z,68.20
2022-08-31T11:26:09.710Z,68.30
2022-08-31T11:29:00.182Z,69.50
2022-08-31T11:31:30.459Z,70.00
2022-08-31T11:34:16.114Z,70.40
2022-08-31T11:36:50.353Z,69.60
2022-08-31T11:39:35.634Z,70.30
2022-08-31T11:42:34.270Z,69.60
2022-08-31T11:45:06.433Z,69.50
2022-08-31T11:47:43.228Z,69.20
2022-08-31T11:50:33.067Z,68.30
2022-08-31T11:53:25.427Z,68.10
2022-08-31T11:55:59.766Z,68.20
2022-08-31T11:58:31.720Z,67.70
2022-08-31T12:01:09.368Z,68.00
2022-08-31T12:03:47.217Z,67.80
2022-08-31T12:06:27.794Z,68.10
2022-08-31T12:09:20.807Z,67.40
2022-08-31T12:12:06.598Z,66.90
2022-08-31T12:14:59.528Z,64.90
2022-08-31T12:17:39.327Z,65.60
2022-08-31T12:20:21.470Z,65.60
2022-08-31T12:23:40.705Z,65.20
2022-08-31T12:26:35.950Z,65.40
2022-08-31T12:29:32.222Z,65.50
2022-08-31T12:32:11.365Z,65.10
2022-08-31T12:35:07.260Z,64.80
2022-08-31T12:37:35.870Z,64.60
2022-08-31T12:40:14.694Z,63.90
2022-08-31T12:42:59.938Z,63.90
2022-08-31T12:46:00.908Z,63.00
2022-08-31T12:49:03.573Z,63.90
2022-08-31T12:51:44.068Z,64.10
2022-08-31T12:54:25.520Z,63.60
2022-08-31T12:57:29.220Z,63.80
2022-08-31T13:00:08.214Z,63.10
2022-08-31T13:02:43.381Z,62.90
2022-08-31T13:05:32.963Z,62.50
2022-08-31T13:08:18.406Z,62.80
2022-08-31T13:10:45.222Z,63.40
2022-08-31T13:13:28.160Z,63.30
2022-08-31T13:16:04.749Z,62.60
2022-08-31T13:18:31.630Z,62.40
2022-08-31T13:21:06.723Z,61.90
2022-08-31T13:23:40.990Z,61.60
2022-08-31T13:26:20.641Z,61.90
2022-08-31T13:28:57.916Z,61.70
2022-08-31T13:31:31.743Z,61.10
2022-08-31T13:34:02.886Z,60.90
2022-08-31T13:36:53.475Z,60.00
2022-08-31T13:39:35.005Z,60.50
2022-08-31T13:42:06.397Z,59.90
2022-08-31T13:44:44.110Z,59.90
2022-08-31T13:47:38.026Z,59.80
2022-08-31T13:50:26.109Z,59.10
2022-08-31T13:53:24.866Z,58.10
2022-08-31T13:55:43.894Z,58.10
2022-08-31T13:58:27.225Z,58.10
2022-08-31T14:01:24.463Z,58.20
2022-08-31T14:03:58.780Z,58.10
2022-08-31T14:06:34.851Z,58.50
2022-08-31T14:09:24.709Z,57.10
2022-08-31T14:12:05.199Z,57.20
2022-08-31T14:14:42.198Z,57.90
2022-08-31T14:17:16.412Z,58.40
2022-08-31T14:19:45.140Z,57.40
2022-08-31T14:22:27.830Z,56.60
2022-08-31T14:24:55.654Z,56.90
2022-08-31T14:27:24.130Z,56.70
2022-08-31T14:29:52.265Z,56.50
2022-08-31T14:32:22.755Z,56.60
2022-08-31T14:34:51.106Z,56.00
2022-08-31T14:37:22.719Z,56.30
2022-08-31T14:39:51.876Z,55.70
2022-08-31T14:42:30.359Z,55.60
2022-08-31T14:45:04.929Z,55.70
2022-08-31T14:47:34.416Z,55.20
2022-08-31T14:50:05.993Z,55.60
2022-08-31T14:52:39.221Z,55.60
2022-08-31T14:55:09.185Z,55.10
2022-08-31T14:57:36.916Z,55.00
2022-08-31T15:00:10.404Z,55.30
2022-08-31T15:02:37.753Z,54.60
2022-08-31T15:05:09.645Z,53.80
2022-08-31T15:07:39.485Z,53.80
2022-08-31T15:10:12.000Z,53.50
2022-08-31T15:12:39.140Z,53.80
2022-08-31T15:15:07.615Z,54.10
2022-08-31T15:17:36.201Z,54.10
2022-08-31T15:20:04.671Z,54.40
2022-08-31T15:22:34.135Z,54.20
2022-08-31T15:25:01.643Z,53.90
2022-08-31T15:27:31.810Z,54.10
2022-08-31T15:30:08.246Z,53.20
2022-08-31T15:32:43.685Z,53.40
2022-08-31T15:35:14.178Z,53.50
2022-08-31T15:37:43.724Z,53.50
2022-08-31T15:40:14.198Z,53.80
2022-08-31T15:42:43.567Z,53.20
2022-08-31T15:45:10.878Z,52.50
2022-08-31T15:47:58.615Z,53.20
2022-08-31T15:50:31.633Z,53.20
2022-08-31T15:53:09.511Z,53.40
2022-08-31T15:55:40.454Z,53.80
2022-08-31T15:58:09.379Z,53.40
2022-08-31T16:00:37.293Z,53.50
2022-08-31T16:03:06.624Z,53.30
2022-08-31T16:05:39.129Z,53.00
2022-08-31T16:08:11.208Z,53.60
2022-08-31T16:10:46.661Z,53.20
2022-08-31T16:13:15.771Z,53.70
2022-08-31T16:15:50.952Z,54.10
2022-08-31T16:18:21.736Z,54.20
2022-08-31T16:20:50.254Z,53.60
2022-08-31T16:23:17.481Z,53.80
2022-08-31T16:25:48.622Z,54.00
2022-08-31T16:28:17.989Z,54.80
2022-08-31T16:30:45.217Z,54.10
2022-08-31T16:33:12.268Z,54.70
2022-08-31T16:35:39.479Z,54.90
2022-08-31T16:38:07.151Z,53.80
2022-08-31T16:40:35.357Z,54.50
2022-08-31T16:43:02.411Z,54.60
2022-08-31T16:45:29.261Z,54.40
2022-08-31T16:48:16.028Z,54.20
2022-08-31T16:50:47.160Z,54.40
2022-08-31T16:53:15.301Z,54.50
2022-08-31T16:55:44.391Z,54.60
2022-08-31T16:58:24.890Z,54.80
2022-08-31T17:01:12.674Z,54.50
2022-08-31T17:04:01.551Z,54.70
2022-08-31T17:06:33.746Z,55.20
2022-08-31T17:09:04.197Z,54.50
2022-08-31T17:11:47.260Z,54.70
2022-08-31T17:14:23.703Z,55.00
2022-08-31T17:16:50.753Z,54.90
2022-08-31T17:19:19.792Z,54.50
2022-08-31T17:21:50.094Z,54.10
2022-08-31T17:24:23.479Z,54.20
2022-08-31T17:26:52.481Z,54.50
2022-08-31T17:29:23.517Z,54.70
2022-08-31T17:31:50.717Z,54.90
2022-08-31T17:34:22.895Z,54.60
2022-08-31T17:36:51.213Z,54.20
2022-08-31T17:39:19.699Z,55.00
2022-08-31T17:41:49.234Z,54.90
2022-08-31T17:44:17.868Z,55.00
2022-08-31T17:46:50.317Z,54.70
2022-08-31T17:49:18.950Z,54.70
2022-08-31T17:51:48.038Z,55.00
2022-08-31T17:54:18.662Z,55.10
2022-08-31T17:56:53.522Z,54.90
2022-08-31T17:59:26.795Z,54.60
2022-08-31T18:01:56.582Z,54.30
2022-08-31T18:04:24.831Z,54.70
2022-08-31T18:06:55.654Z,55.80
2022-08-31T18:09:28.926Z,55.80
2022-08-31T18:11:56.198Z,56.60
2022-08-31T18:14:26.132Z,56.90
2022-08-31T18:16:57.116Z,57.70
2022-08-31T18:19:27.546Z,57.10
2022-08-31T18:21:55.597Z,57.00
2022-08-31T18:24:25.324Z,57.20
2022-08-31T18:26:56.702Z,57.30
2022-08-31T18:29:26.692Z,57.60
2022-08-31T18:31:55.297Z,57.60
2022-08-31T18:34:24.544Z,57.60
2022-08-31T18:36:53.573Z,58.00
2022-08-31T18:39:50.006Z,58.10
2022-08-31T18:42:32.321Z,58.80
2022-08-31T18:45:18.285Z,58.90
2022-08-31T18:48:13.525Z,58.90
2022-08-31T18:50:40.110Z,59.40
2022-08-31T18:53:14.990Z,59.50
2022-08-31T18:55:46.163Z,59.70
2022-08-31T18:58:15.594Z,60.20
2022-08-31T19:00:45.467Z,60.80
2022-08-31T19:03:12.829Z,61.70
2022-08-31T19:05:42.760Z,62.60
2022-08-31T19:08:09.548Z,64.40
2022-08-31T19:10:38.727Z,65.50
2022-08-31T19:13:08.497Z,66.80
2022-08-31T19:15:39.825Z,68.30
2022-08-31T19:18:09.814Z,69.50
2022-08-31T19:20:39.515Z,70.40
2022-08-31T19:23:08.548Z,71.20
2022-08-31T19:25:42.315Z,72.20
2022-08-31T19:28:09.634Z,73.50
2022-08-31T19:30:39.618Z,74.30
2022-08-31T19:33:12.308Z,75.50
2022-08-31T19:35:42.491Z,76.40
2022-08-31T19:38:12.029Z,77.20
2022-08-31T19:40:44.235Z,78.20
2022-08-31T19:46:10.719Z,79.50
2022-08-31T19:48:44.854Z,80.50
2022-08-31T19:51:14.399Z,81.20
2022-08-31T19:53:45.105Z,81.80
2022-08-31T19:56:17.801Z,82.20
2022-08-31T19:58:52.820Z,82.80
2022-08-31T20:01:28.196Z,83.60
2022-08-31T20:03:56.155Z,84.10
2022-08-31T20:06:25.459Z,84.40
2022-08-31T20:08:58.125Z,84.70
2022-08-31T20:11:29.285Z,85.00
2022-08-31T20:13:58.465Z,85.30
2022-08-31T20:16:33.817Z,85.70
2022-08-31T20:19:04.829Z,86.20
2022-08-31T20:21:34.896Z,86.60
2022-08-31T20:24:08.069Z,86.90
2022-08-31T20:26:44.786Z,87.30
2022-08-31T20:29:18.027Z,87.50
2022-08-31T20:31:49.946Z,87.70
2022-08-31T20:34:19.264Z,88.10
2022-08-31T20:36:48.238Z,88.50
2022-08-31T20:39:16.916Z,88.80
2022-08-31T20:41:48.025Z,89.10
2022-08-31T20:44:18.740Z,89.40
2022-08-31T20:47:10.030Z,89.50
2022-08-31T20:49:41.799Z,89.80
2022-08-31T20:52:11.444Z,90.00
2022-08-31T20:54:38.558Z,90.10
2022-08-31T20:57:09.170Z,90.10
2022-08-31T20:59:36.857Z,90.10
2022-08-31T21:02:08.010Z,90.20
2022-08-31T21:04:38.261Z,90.20
2022-08-31T21:07:06.616Z,90.20
2022-08-31T21:09:34.153Z,90.30
2022-08-31T21:12:01.302Z,90.30
2022-08-31T21:14:29.224Z,90.40
2022-08-31T21:16:56.528Z,90.30
2022-08-31T21:19:24.325Z,90.30
2022-08-31T21:21:53.810Z,90.30
2022-08-31T21:24:21.858Z,90.30
2022-08-31T21:26:59.185Z,90.30
2022-08-31T21:29:29.430Z,90.30
2022-08-31T21:32:03.363Z,90.20
2022-08-31T21:34:31.156Z,90.20
2022-08-31T21:36:58.069Z,90.10
2022-08-31T21:39:27.015Z,90.00
2022-08-31T21:41:56.472Z,90.00
2022-08-31T21:44:24.448Z,90.00
2022-08-31T21:46:51.371Z,90.00
2022-08-31T21:49:19.644Z,90.00
2022-08-31T21:51:54.832Z,90.00
2022-08-31T21:54:27.570Z,90.00
2022-08-31T21:56:59.736Z,90.00
2022-08-31T21:59:30.643Z,90.00
2022-08-31T22:02:00.992Z,89.90
2022-08-31T22:04:29.326Z,90.00
2022-08-31T22:06:59.595Z,90.00
2022-08-31T22:09:28.496Z,90.00
2022-08-31T22:11:57.735Z,90.00
2022-08-31T22:14:31.913Z,90.10
2022-08-31T22:17:03.950Z,90.10
2022-08-31T22:19:34.063Z,90.20
2022-08-31T22:22:03.169Z,90.30
2022-08-31T22:24:33.596Z,90.30
2022-08-31T22:27:03.009Z,90.40
2022-08-31T22:29:32.679Z,90.40
2022-08-31T22:32:05.271Z,90.50
2022-08-31T22:34:35.317Z,90.50
2022-08-31T22:37:04.968Z,90.60
2022-08-31T22:39:32.900Z,90.70
2022-08-31T22:42:01.492Z,90.70
2022-08-31T22:44:34.058Z,90.90
2022-08-31T22:47:01.087Z,90.90
2022-08-31T22:49:28.138Z,91.30
2022-08-31T22:51:56.920Z,91.10
2022-08-31T22:54:25.281Z,91.10
2022-08-31T22:56:53.158Z,91.20
2022-08-31T22:59:26.989Z,91.30
2022-08-31T23:01:56.686Z,91.30
2022-08-31T23:04:26.381Z,91.40
2022-08-31T23:06:53.315Z,91.40
2022-08-31T23:09:21.717Z,91.50
2022-08-31T23:11:51.483Z,91.50
2022-08-31T23:14:22.184Z,91.50
2022-08-31T23:16:58.685Z,91.60
2022-08-31T23:19:32.798Z,91.70
2022-08-31T23:22:00.907Z,91.80
2022-08-31T23:24:51.315Z,91.80
2022-08-31T23:27:21.564Z,91.90
2022-08-31T23:29:51.740Z,91.90
2022-08-31T23:32:21.720Z,92.00
2022-08-31T23:34:52.666Z,92.00
2022-08-31T23:37:25.703Z,92.10
2022-08-31T23:39:57.984Z,92.20
2022-08-31T23:42:27.278Z,92.30
2022-08-31T23:44:57.618Z,92.30
2022-08-31T23:47:28.994Z,92.40
2022-08-31T23:49:57.814Z,92.50
2022-08-31T23:52:27.426Z,92.50
2022-08-31T23:54:59.349Z,92.60
2022-08-31T23:57:32.369Z,92.60
